sensor_id;sensor_type;location;lat;lon;timestamp;P1;durP1;ratioP1;P2;durP2;ratioP2
57107;SDS011;42987;52.916;6.542;2023-08-08T00:02:23;7.90;;;4.25;;
57107;SDS011;42987;52.916;6.542;2023-08-08T00:04:49;7.57;;;5.30;;
57107;SDS011;42987;52.916;6.542;2023-08-08T00:07:15;7.38;;;5.57;;
57107;SDS011;42987;52.916;6.542;2023-08-08T00:09:41;7.50;;;5.97;;
57107;SDS011;42987;52.916;6.542;2023-08-08T00:12:07;8.32;;;6.07;;
57107;SDS011;42987;52.916;6.542;2023-08-08T00:14:35;9.05;;;6.38;;
57107;SDS011;42987;52.916;6.542;2023-08-08T00:17:01;6.93;;;5.85;;
57107;SDS011;42987;52.916;6.542;2023-08-08T00:19:30;8.85;;;6.35;;
57107;SDS011;42987;52.916;6.542;2023-08-08T00:21:56;8.10;;;5.85;;
57107;SDS011;42987;52.916;6.542;2023-08-08T00:24:21;9.55;;;6.57;;
57107;SDS011;42987;52.916;6.542;2023-08-08T00:26:47;8.90;;;6.20;;
57107;SDS011;42987;52.916;6.542;2023-08-08T00:29:14;8.30;;;6.57;;
57107;SDS011;42987;52.916;6.542;2023-08-08T00:31:39;8.23;;;6.47;;
57107;SDS011;42987;52.916;6.542;2023-08-08T00:34:05;8.85;;;6.18;;
57107;SDS011;42987;52.916;6.542;2023-08-08T00:36:31;8.82;;;6.72;;
57107;SDS011;42987;52.916;6.542;2023-08-08T00:38:57;8.38;;;6.68;;
57107;SDS011;42987;52.916;6.542;2023-08-08T00:41:22;9.10;;;6.93;;
57107;SDS011;42987;52.916;6.542;2023-08-08T00:43:48;6.85;;;5.82;;
57107;SDS011;42987;52.916;6.542;2023-08-08T00:46:15;7.53;;;6.55;;
57107;SDS011;42987;52.916;6.542;2023-08-08T00:48:46;10.02;;;6.93;;
57107;SDS011;42987;52.916;6.542;2023-08-08T00:51:12;8.32;;;6.38;;
57107;SDS011;42987;52.916;6.542;2023-08-08T00:53:39;8.35;;;6.38;;
57107;SDS011;42987;52.916;6.542;2023-08-08T00:56:05;7.05;;;6.22;;
57107;SDS011;42987;52.916;6.542;2023-08-08T00:58:31;9.30;;;7.30;;
57107;SDS011;42987;52.916;6.542;2023-08-08T01:00:57;8.60;;;6.55;;
57107;SDS011;42987;52.916;6.542;2023-08-08T01:03:25;8.20;;;6.75;;
57107;SDS011;42987;52.916;6.542;2023-08-08T01:06:00;9.30;;;6.82;;
57107;SDS011;42987;52.916;6.542;2023-08-08T01:08:42;8.10;;;6.80;;
57107;SDS011;42987;52.916;6.542;2023-08-08T01:11:19;9.50;;;7.00;;
57107;SDS011;42987;52.916;6.542;2023-08-08T01:13:45;8.43;;;7.20;;
57107;SDS011;42987;52.916;6.542;2023-08-08T01:16:11;8.18;;;6.95;;
57107;SDS011;42987;52.916;6.542;2023-08-08T01:18:38;9.30;;;6.85;;
57107;SDS011;42987;52.916;6.542;2023-08-08T01:21:06;10.95;;;7.68;;
57107;SDS011;42987;52.916;6.542;2023-08-08T01:23:34;8.27;;;6.65;;
57107;SDS011;42987;52.916;6.542;2023-08-08T01:26:18;9.45;;;7.07;;
57107;SDS011;42987;52.916;6.542;2023-08-08T01:28:46;8.43;;;6.60;;
57107;SDS011;42987;52.916;6.542;2023-08-08T01:31:12;8.27;;;6.40;;
57107;SDS011;42987;52.916;6.542;2023-08-08T01:33:38;8.20;;;6.45;;
57107;SDS011;42987;52.916;6.542;2023-08-08T01:36:11;11.65;;;7.28;;
57107;SDS011;42987;52.916;6.542;2023-08-08T01:38:46;9.40;;;6.88;;
57107;SDS011;42987;52.916;6.542;2023-08-08T01:41:15;10.07;;;6.70;;
57107;SDS011;42987;52.916;6.542;2023-08-08T01:43:46;11.48;;;7.57;;
57107;SDS011;42987;52.916;6.542;2023-08-08T01:46:14;9.70;;;6.63;;
57107;SDS011;42987;52.916;6.542;2023-08-08T01:48:40;12.32;;;7.38;;
57107;SDS011;42987;52.916;6.542;2023-08-08T01:51:10;9.57;;;7.65;;
57107;SDS011;42987;52.916;6.542;2023-08-08T01:53:35;8.32;;;7.32;;
57107;SDS011;42987;52.916;6.542;2023-08-08T01:56:01;8.52;;;7.38;;
57107;SDS011;42987;52.916;6.542;2023-08-08T01:58:28;10.13;;;8.05;;
57107;SDS011;42987;52.916;6.542;2023-08-08T02:00:53;10.93;;;7.60;;
57107;SDS011;42987;52.916;6.542;2023-08-08T02:03:19;10.20;;;8.00;;
57107;SDS011;42987;52.916;6.542;2023-08-08T02:05:45;9.98;;;7.30;;
57107;SDS011;42987;52.916;6.542;2023-08-08T02:08:11;8.48;;;7.43;;
57107;SDS011;42987;52.916;6.542;2023-08-08T02:10:38;10.32;;;8.35;;
57107;SDS011;42987;52.916;6.542;2023-08-08T02:13:03;9.57;;;8.38;;
57107;SDS011;42987;52.916;6.542;2023-08-08T02:15:29;8.30;;;6.68;;
57107;SDS011;42987;52.916;6.542;2023-08-08T02:17:55;8.93;;;7.40;;
57107;SDS011;42987;52.916;6.542;2023-08-08T02:20:21;9.15;;;7.55;;
57107;SDS011;42987;52.916;6.542;2023-08-08T02:22:46;9.48;;;7.15;;
57107;SDS011;42987;52.916;6.542;2023-08-08T02:25:12;10.85;;;8.98;;
57107;SDS011;42987;52.916;6.542;2023-08-08T02:27:38;9.43;;;7.82;;
57107;SDS011;42987;52.916;6.542;2023-08-08T02:30:04;8.63;;;7.72;;
57107;SDS011;42987;52.916;6.542;2023-08-08T02:32:30;12.35;;;7.97;;
57107;SDS011;42987;52.916;6.542;2023-08-08T02:34:59;8.50;;;7.65;;
57107;SDS011;42987;52.916;6.542;2023-08-08T02:37:25;12.90;;;8.27;;
57107;SDS011;42987;52.916;6.542;2023-08-08T02:39:54;11.00;;;7.55;;
57107;SDS011;42987;52.916;6.542;2023-08-08T02:42:20;9.35;;;7.53;;
57107;SDS011;42987;52.916;6.542;2023-08-08T02:44:46;11.30;;;6.57;;
57107;SDS011;42987;52.916;6.542;2023-08-08T02:47:12;9.48;;;7.47;;
57107;SDS011;42987;52.916;6.542;2023-08-08T02:49:37;10.05;;;6.22;;
57107;SDS011;42987;52.916;6.542;2023-08-08T02:52:03;6.68;;;5.60;;
57107;SDS011;42987;52.916;6.542;2023-08-08T02:54:29;8.98;;;6.10;;
57107;SDS011;42987;52.916;6.542;2023-08-08T02:56:55;9.57;;;6.20;;
57107;SDS011;42987;52.916;6.542;2023-08-08T02:59:21;7.75;;;5.85;;
57107;SDS011;42987;52.916;6.542;2023-08-08T03:01:47;6.57;;;5.88;;
57107;SDS011;42987;52.916;6.542;2023-08-08T03:04:13;9.55;;;6.30;;
57107;SDS011;42987;52.916;6.542;2023-08-08T03:06:38;7.68;;;5.53;;
57107;SDS011;42987;52.916;6.542;2023-08-08T03:09:04;9.88;;;6.50;;
57107;SDS011;42987;52.916;6.542;2023-08-08T03:11:30;8.93;;;6.53;;
57107;SDS011;42987;52.916;6.542;2023-08-08T03:13:56;7.72;;;6.13;;
57107;SDS011;42987;52.916;6.542;2023-08-08T03:16:21;8.32;;;6.05;;
57107;SDS011;42987;52.916;6.542;2023-08-08T03:18:47;8.75;;;6.78;;
57107;SDS011;42987;52.916;6.542;2023-08-08T03:21:13;9.80;;;7.85;;
57107;SDS011;42987;52.916;6.542;2023-08-08T03:23:39;12.77;;;7.80;;
57107;SDS011;42987;52.916;6.542;2023-08-08T03:26:05;11.20;;;8.13;;
57107;SDS011;42987;52.916;6.542;2023-08-08T03:28:30;11.15;;;7.30;;
57107;SDS011;42987;52.916;6.542;2023-08-08T03:30:56;11.75;;;7.70;;
57107;SDS011;42987;52.916;6.542;2023-08-08T03:33:22;10.70;;;7.70;;
57107;SDS011;42987;52.916;6.542;2023-08-08T03:35:48;12.65;;;8.32;;
57107;SDS011;42987;52.916;6.542;2023-08-08T03:38:13;9.13;;;7.80;;
57107;SDS011;42987;52.916;6.542;2023-08-08T03:40:39;11.13;;;7.85;;
57107;SDS011;42987;52.916;6.542;2023-08-08T03:43:08;9.77;;;7.35;;
57107;SDS011;42987;52.916;6.542;2023-08-08T03:45:34;12.18;;;6.80;;
57107;SDS011;42987;52.916;6.542;2023-08-08T03:48:00;9.98;;;6.93;;
57107;SDS011;42987;52.916;6.542;2023-08-08T03:50:25;9.82;;;6.68;;
57107;SDS011;42987;52.916;6.542;2023-08-08T03:52:51;12.90;;;6.35;;
57107;SDS011;42987;52.916;6.542;2023-08-08T03:55:18;10.68;;;5.70;;
57107;SDS011;42987;52.916;6.542;2023-08-08T03:57:43;9.38;;;6.50;;
57107;SDS011;42987;52.916;6.542;2023-08-08T04:00:09;9.38;;;5.20;;
57107;SDS011;42987;52.916;6.542;2023-08-08T04:02:36;9.60;;;5.15;;
57107;SDS011;42987;52.916;6.542;2023-08-08T04:05:05;7.70;;;4.38;;
57107;SDS011;42987;52.916;6.542;2023-08-08T04:07:31;13.93;;;4.95;;
57107;SDS011;42987;52.916;6.542;2023-08-08T04:09:57;7.82;;;4.50;;
57107;SDS011;42987;52.916;6.542;2023-08-08T04:12:22;10.02;;;4.90;;
57107;SDS011;42987;52.916;6.542;2023-08-08T04:14:48;7.82;;;4.60;;
57107;SDS011;42987;52.916;6.542;2023-08-08T04:17:14;6.63;;;3.80;;
57107;SDS011;42987;52.916;6.542;2023-08-08T04:19:39;9.70;;;4.63;;
57107;SDS011;42987;52.916;6.542;2023-08-08T04:22:08;10.20;;;4.07;;
57107;SDS011;42987;52.916;6.542;2023-08-08T04:24:35;8.52;;;4.00;;
57107;SDS011;42987;52.916;6.542;2023-08-08T04:27:01;10.23;;;5.10;;
57107;SDS011;42987;52.916;6.542;2023-08-08T04:29:26;10.02;;;3.47;;
57107;SDS011;42987;52.916;6.542;2023-08-08T04:31:52;8.32;;;3.30;;
57107;SDS011;42987;52.916;6.542;2023-08-08T04:34:18;6.70;;;3.28;;
57107;SDS011;42987;52.916;6.542;2023-08-08T04:36:44;7.43;;;3.28;;
57107;SDS011;42987;52.916;6.542;2023-08-08T04:39:09;7.22;;;3.15;;
57107;SDS011;42987;52.916;6.542;2023-08-08T04:41:35;8.52;;;3.00;;
57107;SDS011;42987;52.916;6.542;2023-08-08T04:44:01;8.27;;;3.33;;
57107;SDS011;42987;52.916;6.542;2023-08-08T04:46:30;5.50;;;2.60;;
57107;SDS011;42987;52.916;6.542;2023-08-08T04:48:56;6.93;;;2.83;;
57107;SDS011;42987;52.916;6.542;2023-08-08T04:51:21;5.72;;;2.75;;
57107;SDS011;42987;52.916;6.542;2023-08-08T04:53:47;7.13;;;2.65;;
57107;SDS011;42987;52.916;6.542;2023-08-08T04:56:13;6.00;;;2.45;;
57107;SDS011;42987;52.916;6.542;2023-08-08T04:58:39;9.00;;;2.60;;
57107;SDS011;42987;52.916;6.542;2023-08-08T05:01:04;9.20;;;2.85;;
57107;SDS011;42987;52.916;6.542;2023-08-08T05:03:30;5.80;;;2.28;;
57107;SDS011;42987;52.916;6.542;2023-08-08T05:05:56;6.80;;;2.53;;
57107;SDS011;42987;52.916;6.542;2023-08-08T05:08:24;6.82;;;1.98;;
57107;SDS011;42987;52.916;6.542;2023-08-08T05:10:49;8.50;;;2.70;;
57107;SDS011;42987;52.916;6.542;2023-08-08T05:13:15;8.48;;;2.65;;
57107;SDS011;42987;52.916;6.542;2023-08-08T05:15:41;9.23;;;2.60;;
57107;SDS011;42987;52.916;6.542;2023-08-08T05:18:09;7.03;;;2.85;;
57107;SDS011;42987;52.916;6.542;2023-08-08T05:20:35;5.93;;;2.35;;
57107;SDS011;42987;52.916;6.542;2023-08-08T05:23:01;7.47;;;2.20;;
57107;SDS011;42987;52.916;6.542;2023-08-08T05:25:26;6.60;;;2.20;;
57107;SDS011;42987;52.916;6.542;2023-08-08T05:27:52;4.18;;;1.75;;
57107;SDS011;42987;52.916;6.542;2023-08-08T05:30:18;7.00;;;1.80;;
57107;SDS011;42987;52.916;6.542;2023-08-08T05:32:44;9.95;;;2.53;;
57107;SDS011;42987;52.916;6.542;2023-08-08T05:35:10;4.55;;;1.80;;
57107;SDS011;42987;52.916;6.542;2023-08-08T05:37:35;6.57;;;1.73;;
57107;SDS011;42987;52.916;6.542;2023-08-08T05:40:01;6.03;;;2.17;;
57107;SDS011;42987;52.916;6.542;2023-08-08T05:42:31;5.65;;;1.80;;
57107;SDS011;42987;52.916;6.542;2023-08-08T05:44:57;5.45;;;1.77;;
57107;SDS011;42987;52.916;6.542;2023-08-08T05:47:23;4.15;;;1.85;;
57107;SDS011;42987;52.916;6.542;2023-08-08T05:49:49;4.47;;;1.60;;
57107;SDS011;42987;52.916;6.542;2023-08-08T05:52:15;4.70;;;1.88;;
57107;SDS011;42987;52.916;6.542;2023-08-08T05:54:40;4.40;;;1.70;;
57107;SDS011;42987;52.916;6.542;2023-08-08T05:57:06;5.68;;;1.80;;
57107;SDS011;42987;52.916;6.542;2023-08-08T05:59:32;3.47;;;1.70;;
57107;SDS011;42987;52.916;6.542;2023-08-08T06:01:58;5.18;;;1.48;;
57107;SDS011;42987;52.916;6.542;2023-08-08T06:04:24;4.22;;;1.48;;
57107;SDS011;42987;52.916;6.542;2023-08-08T06:06:50;5.07;;;1.73;;
57107;SDS011;42987;52.916;6.542;2023-08-08T06:09:19;4.93;;;1.70;;
57107;SDS011;42987;52.916;6.542;2023-08-08T06:11:45;4.80;;;1.40;;
57107;SDS011;42987;52.916;6.542;2023-08-08T06:14:11;4.82;;;1.60;;
57107;SDS011;42987;52.916;6.542;2023-08-08T06:16:37;7.45;;;1.95;;
57107;SDS011;42987;52.916;6.542;2023-08-08T06:19:06;6.13;;;1.40;;
57107;SDS011;42987;52.916;6.542;2023-08-08T06:21:35;6.43;;;1.70;;
57107;SDS011;42987;52.916;6.542;2023-08-08T06:24:01;5.78;;;2.03;;
57107;SDS011;42987;52.916;6.542;2023-08-08T06:26:28;5.90;;;2.30;;
57107;SDS011;42987;52.916;6.542;2023-08-08T06:28:54;5.03;;;1.90;;
57107;SDS011;42987;52.916;6.542;2023-08-08T06:31:19;7.85;;;1.85;;
57107;SDS011;42987;52.916;6.542;2023-08-08T06:33:45;7.47;;;2.03;;
57107;SDS011;42987;52.916;6.542;2023-08-08T06:36:11;6.25;;;2.03;;
57107;SDS011;42987;52.916;6.542;2023-08-08T06:38:40;6.63;;;1.90;;
57107;SDS011;42987;52.916;6.542;2023-08-08T06:41:09;6.90;;;2.15;;
57107;SDS011;42987;52.916;6.542;2023-08-08T06:43:34;8.05;;;1.90;;
57107;SDS011;42987;52.916;6.542;2023-08-08T06:46:03;7.22;;;2.10;;
57107;SDS011;42987;52.916;6.542;2023-08-08T06:48:29;7.13;;;1.85;;
57107;SDS011;42987;52.916;6.542;2023-08-08T06:50:55;6.05;;;1.80;;
57107;SDS011;42987;52.916;6.542;2023-08-08T06:53:21;8.77;;;2.50;;
57107;SDS011;42987;52.916;6.542;2023-08-08T06:55:54;10.18;;;1.70;;
57107;SDS011;42987;52.916;6.542;2023-08-08T06:58:20;7.05;;;1.92;;
57107;SDS011;42987;52.916;6.542;2023-08-08T07:00:45;7.63;;;1.90;;
57107;SDS011;42987;52.916;6.542;2023-08-08T07:03:11;7.75;;;2.55;;
57107;SDS011;42987;52.916;6.542;2023-08-08T07:05:39;5.07;;;1.70;;
57107;SDS011;42987;52.916;6.542;2023-08-08T07:08:05;9.20;;;1.75;;
57107;SDS011;42987;52.916;6.542;2023-08-08T07:10:31;7.30;;;1.85;;
57107;SDS011;42987;52.916;6.542;2023-08-08T07:12:57;8.07;;;1.95;;
57107;SDS011;42987;52.916;6.542;2023-08-08T07:15:22;5.43;;;1.60;;
57107;SDS011;42987;52.916;6.542;2023-08-08T07:17:49;4.65;;;1.50;;
57107;SDS011;42987;52.916;6.542;2023-08-08T07:20:14;5.88;;;1.60;;
57107;SDS011;42987;52.916;6.542;2023-08-08T07:22:40;6.28;;;1.33;;
57107;SDS011;42987;52.916;6.542;2023-08-08T07:25:06;7.57;;;1.77;;
57107;SDS011;42987;52.916;6.542;2023-08-08T07:27:36;6.95;;;1.70;;
57107;SDS011;42987;52.916;6.542;2023-08-08T07:30:05;5.35;;;1.40;;
57107;SDS011;42987;52.916;6.542;2023-08-08T07:32:32;4.93;;;1.38;;
57107;SDS011;42987;52.916;6.542;2023-08-08T07:34:58;8.57;;;1.65;;
57107;SDS011;42987;52.916;6.542;2023-08-08T07:37:26;7.55;;;1.75;;
57107;SDS011;42987;52.916;6.542;2023-08-08T07:39:52;6.85;;;1.45;;
57107;SDS011;42987;52.916;6.542;2023-08-08T07:42:18;5.63;;;1.52;;
57107;SDS011;42987;52.916;6.542;2023-08-08T07:44:43;5.65;;;1.10;;
57107;SDS011;42987;52.916;6.542;2023-08-08T07:47:09;7.32;;;1.30;;
57107;SDS011;42987;52.916;6.542;2023-08-08T07:49:35;6.93;;;1.52;;
57107;SDS011;42987;52.916;6.542;2023-08-08T07:52:00;6.85;;;1.27;;
57107;SDS011;42987;52.916;6.542;2023-08-08T07:54:26;8.80;;;1.48;;
57107;SDS011;42987;52.916;6.542;2023-08-08T07:56:52;7.13;;;1.15;;
57107;SDS011;42987;52.916;6.542;2023-08-08T07:59:18;4.00;;;1.25;;
57107;SDS011;42987;52.916;6.542;2023-08-08T08:01:43;4.72;;;1.20;;
57107;SDS011;42987;52.916;6.542;2023-08-08T08:04:09;4.38;;;1.35;;
57107;SDS011;42987;52.916;6.542;2023-08-08T08:06:35;4.68;;;1.23;;
57107;SDS011;42987;52.916;6.542;2023-08-08T08:09:00;6.18;;;1.30;;
57107;SDS011;42987;52.916;6.542;2023-08-08T08:11:26;4.55;;;1.30;;
57107;SDS011;42987;52.916;6.542;2023-08-08T08:13:52;5.45;;;1.10;;
57107;SDS011;42987;52.916;6.542;2023-08-08T08:16:18;4.88;;;1.40;;
57107;SDS011;42987;52.916;6.542;2023-08-08T08:18:43;5.43;;;1.20;;
57107;SDS011;42987;52.916;6.542;2023-08-08T08:21:09;3.25;;;1.10;;
57107;SDS011;42987;52.916;6.542;2023-08-08T08:23:35;6.65;;;1.20;;
57107;SDS011;42987;52.916;6.542;2023-08-08T08:26:01;5.22;;;1.30;;
57107;SDS011;42987;52.916;6.542;2023-08-08T08:28:26;4.60;;;1.17;;
57107;SDS011;42987;52.916;6.542;2023-08-08T08:30:52;6.40;;;1.20;;
57107;SDS011;42987;52.916;6.542;2023-08-08T08:33:18;4.90;;;1.40;;
57107;SDS011;42987;52.916;6.542;2023-08-08T08:35:45;6.53;;;1.48;;
57107;SDS011;42987;52.916;6.542;2023-08-08T08:38:10;6.90;;;1.35;;
57107;SDS011;42987;52.916;6.542;2023-08-08T08:40:37;6.03;;;1.55;;
57107;SDS011;42987;52.916;6.542;2023-08-08T08:43:06;5.65;;;1.20;;
57107;SDS011;42987;52.916;6.542;2023-08-08T08:45:34;7.22;;;1.50;;
57107;SDS011;42987;52.916;6.542;2023-08-08T08:48:04;3.90;;;1.10;;
57107;SDS011;42987;52.916;6.542;2023-08-08T08:50:38;6.03;;;1.23;;
57107;SDS011;42987;52.916;6.542;2023-08-08T08:53:05;6.53;;;1.50;;
57107;SDS011;42987;52.916;6.542;2023-08-08T08:55:35;4.88;;;1.55;;
57107;SDS011;42987;52.916;6.542;2023-08-08T08:58:01;5.43;;;1.40;;
57107;SDS011;42987;52.916;6.542;2023-08-08T09:00:27;5.00;;;1.17;;
57107;SDS011;42987;52.916;6.542;2023-08-08T09:02:53;4.28;;;1.50;;
57107;SDS011;42987;52.916;6.542;2023-08-08T09:05:20;5.25;;;1.15;;
57107;SDS011;42987;52.916;6.542;2023-08-08T09:07:49;6.05;;;1.52;;
57107;SDS011;42987;52.916;6.542;2023-08-08T09:10:16;4.65;;;1.30;;
57107;SDS011;42987;52.916;6.542;2023-08-08T09:12:43;5.03;;;1.10;;
57107;SDS011;42987;52.916;6.542;2023-08-08T09:15:11;6.32;;;1.67;;
57107;SDS011;42987;52.916;6.542;2023-08-08T09:17:46;4.70;;;1.55;;
57107;SDS011;42987;52.916;6.542;2023-08-08T09:20:15;6.03;;;1.48;;
57107;SDS011;42987;52.916;6.542;2023-08-08T09:22:42;5.07;;;1.33;;
57107;SDS011;42987;52.916;6.542;2023-08-08T09:25:08;5.18;;;1.35;;
57107;SDS011;42987;52.916;6.542;2023-08-08T09:27:34;6.32;;;1.77;;
57107;SDS011;42987;52.916;6.542;2023-08-08T09:30:00;5.05;;;1.35;;
57107;SDS011;42987;52.916;6.542;2023-08-08T09:32:31;5.28;;;1.50;;
57107;SDS011;42987;52.916;6.542;2023-08-08T09:34:57;5.82;;;1.60;;
57107;SDS011;42987;52.916;6.542;2023-08-08T09:37:24;4.72;;;1.52;;
57107;SDS011;42987;52.916;6.542;2023-08-08T09:39:57;6.50;;;1.48;;
57107;SDS011;42987;52.916;6.542;2023-08-08T09:42:31;4.65;;;1.30;;
57107;SDS011;42987;52.916;6.542;2023-08-08T09:44:57;4.90;;;1.38;;
57107;SDS011;42987;52.916;6.542;2023-08-08T09:47:23;6.63;;;1.48;;
57107;SDS011;42987;52.916;6.542;2023-08-08T09:49:50;5.68;;;1.50;;
57107;SDS011;42987;52.916;6.542;2023-08-08T09:52:16;6.20;;;1.55;;
57107;SDS011;42987;52.916;6.542;2023-08-08T09:54:42;7.20;;;1.58;;
57107;SDS011;42987;52.916;6.542;2023-08-08T09:57:08;4.70;;;1.10;;
57107;SDS011;42987;52.916;6.542;2023-08-08T09:59:34;3.63;;;1.25;;
57107;SDS011;42987;52.916;6.542;2023-08-08T10:02:04;4.60;;;1.50;;
57107;SDS011;42987;52.916;6.542;2023-08-08T10:04:31;4.07;;;1.30;;
57107;SDS011;42987;52.916;6.542;2023-08-08T10:06:58;5.70;;;1.75;;
57107;SDS011;42987;52.916;6.542;2023-08-08T10:09:24;7.40;;;1.52;;
57107;SDS011;42987;52.916;6.542;2023-08-08T10:11:50;4.65;;;1.30;;
57107;SDS011;42987;52.916;6.542;2023-08-08T10:14:19;4.88;;;1.23;;
57107;SDS011;42987;52.916;6.542;2023-08-08T10:16:45;7.75;;;1.35;;
57107;SDS011;42987;52.916;6.542;2023-08-08T10:19:13;5.50;;;1.42;;
57107;SDS011;42987;52.916;6.542;2023-08-08T10:21:46;7.10;;;1.80;;
57107;SDS011;42987;52.916;6.542;2023-08-08T10:24:12;5.50;;;1.45;;
57107;SDS011;42987;52.916;6.542;2023-08-08T10:26:51;2.55;;;0.98;;
57107;SDS011;42987;52.916;6.542;2023-08-08T10:29:19;6.00;;;1.20;;
57107;SDS011;42987;52.916;6.542;2023-08-08T10:32:02;4.20;;;1.13;;
57107;SDS011;42987;52.916;6.542;2023-08-08T10:34:36;5.05;;;1.40;;
57107;SDS011;42987;52.916;6.542;2023-08-08T10:37:12;4.75;;;1.05;;
57107;SDS011;42987;52.916;6.542;2023-08-08T10:39:57;4.63;;;1.15;;
57107;SDS011;42987;52.916;6.542;2023-08-08T10:42:24;4.05;;;1.00;;
57107;SDS011;42987;52.916;6.542;2023-08-08T10:44:55;3.80;;;1.20;;
57107;SDS011;42987;52.916;6.542;2023-08-08T10:47:40;4.03;;;1.30;;
57107;SDS011;42987;52.916;6.542;2023-08-08T10:50:11;5.43;;;1.30;;
57107;SDS011;42987;52.916;6.542;2023-08-08T10:52:52;5.03;;;1.40;;
57107;SDS011;42987;52.916;6.542;2023-08-08T11:00:38;4.97;;;0.95;;
57107;SDS011;42987;52.916;6.542;2023-08-08T11:03:05;3.85;;;1.00;;
57107;SDS011;42987;52.916;6.542;2023-08-08T11:05:41;4.35;;;1.05;;
57107;SDS011;42987;52.916;6.542;2023-08-08T11:08:09;4.35;;;1.08;;
57107;SDS011;42987;52.916;6.542;2023-08-08T11:10:36;5.47;;;1.10;;
57107;SDS011;42987;52.916;6.542;2023-08-08T11:13:06;4.75;;;1.27;;
57107;SDS011;42987;52.916;6.542;2023-08-08T11:15:36;3.55;;;0.90;;
57107;SDS011;42987;52.916;6.542;2023-08-08T11:18:04;4.63;;;1.10;;
57107;SDS011;42987;52.916;6.542;2023-08-08T11:20:31;6.75;;;1.30;;
57107;SDS011;42987;52.916;6.542;2023-08-08T11:22:58;6.45;;;1.65;;
57107;SDS011;42987;52.916;6.542;2023-08-08T11:25:26;4.30;;;1.25;;
57107;SDS011;42987;52.916;6.542;2023-08-08T11:27:53;4.88;;;0.98;;
57107;SDS011;42987;52.916;6.542;2023-08-08T11:30:20;3.42;;;1.00;;
57107;SDS011;42987;52.916;6.542;2023-08-08T11:32:47;5.57;;;1.40;;
57107;SDS011;42987;52.916;6.542;2023-08-08T11:35:18;5.82;;;1.20;;
57107;SDS011;42987;52.916;6.542;2023-08-08T11:37:47;6.65;;;1.30;;
57107;SDS011;42987;52.916;6.542;2023-08-08T11:40:14;4.57;;;1.35;;
57107;SDS011;42987;52.916;6.542;2023-08-08T11:42:41;4.30;;;1.30;;
57107;SDS011;42987;52.916;6.542;2023-08-08T11:45:08;4.82;;;1.10;;
57107;SDS011;42987;52.916;6.542;2023-08-08T11:47:34;4.38;;;1.27;;
57107;SDS011;42987;52.916;6.542;2023-08-08T11:52:31;3.40;;;1.05;;
57107;SDS011;42987;52.916;6.542;2023-08-08T11:54:58;3.47;;;1.13;;
57107;SDS011;42987;52.916;6.542;2023-08-08T11:57:27;4.45;;;1.40;;
57107;SDS011;42987;52.916;6.542;2023-08-08T11:59:56;4.68;;;1.20;;
57107;SDS011;42987;52.916;6.542;2023-08-08T12:02:22;5.30;;;1.50;;
57107;SDS011;42987;52.916;6.542;2023-08-08T12:04:52;4.15;;;1.20;;
57107;SDS011;42987;52.916;6.542;2023-08-08T12:07:18;6.30;;;1.52;;
57107;SDS011;42987;52.916;6.542;2023-08-08T12:09:46;6.18;;;1.27;;
57107;SDS011;42987;52.916;6.542;2023-08-08T12:12:13;7.38;;;1.40;;
57107;SDS011;42987;52.916;6.542;2023-08-08T12:14:39;5.38;;;1.48;;
57107;SDS011;42987;52.916;6.542;2023-08-08T12:17:06;6.03;;;1.50;;
57107;SDS011;42987;52.916;6.542;2023-08-08T12:19:35;4.70;;;1.20;;
57107;SDS011;42987;52.916;6.542;2023-08-08T12:22:01;9.63;;;1.30;;
57107;SDS011;42987;52.916;6.542;2023-08-08T12:24:27;5.90;;;1.38;;
57107;SDS011;42987;52.916;6.542;2023-08-08T12:26:53;6.00;;;1.30;;
57107;SDS011;42987;52.916;6.542;2023-08-08T12:29:19;4.78;;;1.15;;
57107;SDS011;42987;52.916;6.542;2023-08-08T12:31:44;5.15;;;1.00;;
57107;SDS011;42987;52.916;6.542;2023-08-08T12:34:10;4.15;;;1.00;;
57107;SDS011;42987;52.916;6.542;2023-08-08T12:36:36;5.30;;;0.90;;
57107;SDS011;42987;52.916;6.542;2023-08-08T12:39:05;3.38;;;1.02;;
57107;SDS011;42987;52.916;6.542;2023-08-08T12:41:31;5.63;;;1.23;;
57107;SDS011;42987;52.916;6.542;2023-08-08T12:43:57;5.05;;;1.00;;
57107;SDS011;42987;52.916;6.542;2023-08-08T12:46:22;4.97;;;1.33;;
57107;SDS011;42987;52.916;6.542;2023-08-08T12:48:49;4.45;;;1.23;;
57107;SDS011;42987;52.916;6.542;2023-08-08T12:51:14;4.57;;;1.48;;
57107;SDS011;42987;52.916;6.542;2023-08-08T12:53:42;4.55;;;1.10;;
57107;SDS011;42987;52.916;6.542;2023-08-08T12:56:07;5.47;;;1.17;;
57107;SDS011;42987;52.916;6.542;2023-08-08T12:58:33;5.72;;;1.90;;
57107;SDS011;42987;52.916;6.542;2023-08-08T13:00:59;4.93;;;1.25;;
57107;SDS011;42987;52.916;6.542;2023-08-08T13:03:25;5.50;;;1.45;;
57107;SDS011;42987;52.916;6.542;2023-08-08T13:05:50;3.85;;;1.13;;
57107;SDS011;42987;52.916;6.542;2023-08-08T13:08:17;5.03;;;1.10;;
57107;SDS011;42987;52.916;6.542;2023-08-08T13:10:43;4.18;;;1.08;;
57107;SDS011;42987;52.916;6.542;2023-08-08T13:13:09;6.82;;;1.48;;
57107;SDS011;42987;52.916;6.542;2023-08-08T13:15:35;3.60;;;0.90;;
57107;SDS011;42987;52.916;6.542;2023-08-08T13:18:01;4.28;;;0.90;;
57107;SDS011;42987;52.916;6.542;2023-08-08T13:20:26;3.50;;;0.90;;
57107;SDS011;42987;52.916;6.542;2023-08-08T13:22:52;5.55;;;1.42;;
57107;SDS011;42987;52.916;6.542;2023-08-08T13:25:19;5.05;;;1.48;;
57107;SDS011;42987;52.916;6.542;2023-08-08T13:27:45;4.57;;;1.20;;
57107;SDS011;42987;52.916;6.542;2023-08-08T13:30:12;5.25;;;1.23;;
57107;SDS011;42987;52.916;6.542;2023-08-08T13:32:41;3.92;;;1.05;;
57107;SDS011;42987;52.916;6.542;2023-08-08T13:35:06;4.35;;;1.13;;
57107;SDS011;42987;52.916;6.542;2023-08-08T13:37:35;5.25;;;1.00;;
57107;SDS011;42987;52.916;6.542;2023-08-08T13:40:01;3.80;;;1.10;;
57107;SDS011;42987;52.916;6.542;2023-08-08T13:42:27;3.30;;;0.98;;
57107;SDS011;42987;52.916;6.542;2023-08-08T13:44:52;2.63;;;0.98;;
57107;SDS011;42987;52.916;6.542;2023-08-08T13:47:20;5.18;;;1.33;;
57107;SDS011;42987;52.916;6.542;2023-08-08T13:49:46;4.68;;;0.93;;
57107;SDS011;42987;52.916;6.542;2023-08-08T13:52:12;3.60;;;0.85;;
57107;SDS011;42987;52.916;6.542;2023-08-08T13:54:38;6.18;;;1.23;;
57107;SDS011;42987;52.916;6.542;2023-08-08T13:57:04;5.00;;;1.23;;
57107;SDS011;42987;52.916;6.542;2023-08-08T13:59:30;5.30;;;1.30;;
57107;SDS011;42987;52.916;6.542;2023-08-08T14:01:55;2.75;;;0.95;;
57107;SDS011;42987;52.916;6.542;2023-08-08T14:04:24;4.97;;;1.08;;
57107;SDS011;42987;52.916;6.542;2023-08-08T14:06:50;4.93;;;1.33;;
57107;SDS011;42987;52.916;6.542;2023-08-08T14:09:16;4.65;;;1.55;;
57107;SDS011;42987;52.916;6.542;2023-08-08T14:11:42;4.88;;;1.23;;
57107;SDS011;42987;52.916;6.542;2023-08-08T14:14:07;4.05;;;1.00;;
57107;SDS011;42987;52.916;6.542;2023-08-08T14:16:33;2.92;;;1.02;;
57107;SDS011;42987;52.916;6.542;2023-08-08T14:18:59;4.43;;;1.45;;
57107;SDS011;42987;52.916;6.542;2023-08-08T14:21:25;4.82;;;1.05;;
57107;SDS011;42987;52.916;6.542;2023-08-08T14:23:53;4.07;;;1.05;;
57107;SDS011;42987;52.916;6.542;2023-08-08T14:26:20;3.60;;;1.10;;
57107;SDS011;42987;52.916;6.542;2023-08-08T14:28:45;3.67;;;1.10;;
57107;SDS011;42987;52.916;6.542;2023-08-08T14:31:11;4.70;;;1.30;;
57107;SDS011;42987;52.916;6.542;2023-08-08T14:33:40;8.10;;;1.38;;
57107;SDS011;42987;52.916;6.542;2023-08-08T14:36:05;5.47;;;1.30;;
57107;SDS011;42987;52.916;6.542;2023-08-08T14:38:34;4.65;;;0.95;;
57107;SDS011;42987;52.916;6.542;2023-08-08T14:41:00;5.40;;;1.25;;
57107;SDS011;42987;52.916;6.542;2023-08-08T14:43:26;5.05;;;1.25;;
57107;SDS011;42987;52.916;6.542;2023-08-08T14:45:52;7.22;;;1.52;;
57107;SDS011;42987;52.916;6.542;2023-08-08T14:48:18;4.32;;;0.90;;
57107;SDS011;42987;52.916;6.542;2023-08-08T14:50:46;5.30;;;1.30;;
57107;SDS011;42987;52.916;6.542;2023-08-08T14:53:13;7.60;;;1.70;;